BAW379H EGPH-LFPG
Flight info
| Callsign | BAW379H |
|---|---|
| Flight time | 1h 27m |
| Altitude | 37000 |
| Route | GOSAM P600 FENIK L612 ELBUS DCT NAVSO DCT AKOMU DCT VAMEB UL612 EMKUK DCT SFD UM605 BIBAX |
| Aircraft | A321/M-SDE3FGHIRWY/LB1 |
Departure
| Time | 2026-04-25 09:57 |
|---|---|
| Airport | Edinburgh Airport (EGPH) |
Arrival
| Time | 2026-04-25 11:24 |
|---|---|
| Airport | Charles de Gaulle International Airport (LFPG) |
| Time | Latitude | Longitude | Altitude | Speed | Heading |
|---|---|---|---|---|---|
| 2026-04-25 09:29 | 55.94907 | -3.36496 | 105 ft | 0 kts | 147° |
| 2026-04-25 09:47 | 55.94919 | -3.36510 | 105 ft | 3 kts | 148° |
| 2026-04-25 09:47 | 55.94934 | -3.36527 | 106 ft | 3 kts | 151° |
| 2026-04-25 09:48 | 55.94952 | -3.36538 | 105 ft | 3 kts | 185° |
| 2026-04-25 09:48 | 55.94968 | -3.36528 | 106 ft | 3 kts | 227° |
| 2026-04-25 09:48 | 55.94974 | -3.36515 | 103 ft | 0 kts | 238° |
| 2026-04-25 09:50 | 55.94964 | -3.36545 | 103 ft | 8 kts | 239° |
| 2026-04-25 09:50 | 55.94933 | -3.36641 | 107 ft | 10 kts | 240° |
| 2026-04-25 09:51 | 55.94900 | -3.36757 | 106 ft | 12 kts | 262° |
| 2026-04-25 09:51 | 55.94924 | -3.36895 | 105 ft | 13 kts | 260° |
| 2026-04-25 09:51 | 55.94875 | -3.37046 | 105 ft | 15 kts | 237° |
| 2026-04-25 09:51 | 55.94820 | -3.37208 | 105 ft | 16 kts | 239° |
| 2026-04-25 09:52 | 55.94762 | -3.37378 | 107 ft | 15 kts | 239° |
| 2026-04-25 09:52 | 55.94708 | -3.37541 | 111 ft | 17 kts | 239° |
| 2026-04-25 09:52 | 55.94639 | -3.37740 | 113 ft | 21 kts | 239° |
| 2026-04-25 09:52 | 55.94554 | -3.37990 | 112 ft | 24 kts | 238° |
| 2026-04-25 09:53 | 55.94461 | -3.38262 | 112 ft | 26 kts | 239° |
| 2026-04-25 09:53 | 55.94369 | -3.38536 | 114 ft | 26 kts | 239° |
| 2026-04-25 09:53 | 55.94290 | -3.38769 | 116 ft | 16 kts | 242° |
| 2026-04-25 09:53 | 55.94305 | -3.38884 | 118 ft | 10 kts | 319° |
| 2026-04-25 09:54 | 55.94321 | -3.38902 | 120 ft | 0 kts | 327° |
| 2026-04-25 09:54 | 55.94335 | -3.38917 | 120 ft | 8 kts | 328° |
| 2026-04-25 09:54 | 55.94417 | -3.38964 | 118 ft | 11 kts | 27° |
| 2026-04-25 09:54 | 55.94430 | -3.38927 | 117 ft | 0 kts | 62° |
| 2026-04-25 09:56 | 55.94435 | -3.38912 | 118 ft | 7 kts | 62° |
| 2026-04-25 09:57 | 55.94572 | -3.38498 | 113 ft | 79 kts | 59° |
| 2026-04-25 09:57 | 55.94984 | -3.37285 | 109 ft | 147 kts | 59° |
| 2026-04-25 09:57 | 55.95536 | -3.35645 | 774 ft | 152 kts | 60° |
| 2026-04-25 09:57 | 55.96138 | -3.34073 | 1617 ft | 158 kts | 49° |
| 2026-04-25 09:58 | 55.97000 | -3.32664 | 2047 ft | 179 kts | 45° |
| 2026-04-25 09:58 | 55.97985 | -3.31077 | 2417 ft | 202 kts | 44° |
| 2026-04-25 09:58 | 55.99085 | -3.29308 | 2687 ft | 225 kts | 42° |
| 2026-04-25 09:58 | 56.00518 | -3.27954 | 2975 ft | 252 kts | 9° |
| 2026-04-25 09:59 | 56.02264 | -3.28448 | 3610 ft | 262 kts | 330° |
| 2026-04-25 09:59 | 56.03522 | -3.30735 | 4455 ft | 261 kts | 295° |
| 2026-04-25 09:59 | 56.03822 | -3.33910 | 5319 ft | 263 kts | 265° |
| 2026-04-25 09:59 | 56.03432 | -3.37110 | 6191 ft | 265 kts | 254° |
| 2026-04-25 10:00 | 56.02815 | -3.40234 | 7056 ft | 267 kts | 251° |
| 2026-04-25 10:00 | 56.02176 | -3.43324 | 7813 ft | 270 kts | 252° |
| 2026-04-25 10:00 | 56.01555 | -3.46553 | 8603 ft | 272 kts | 254° |
| 2026-04-25 10:00 | 56.00995 | -3.49779 | 9339 ft | 277 kts | 256° |
| 2026-04-25 10:01 | 56.00464 | -3.53114 | 10098 ft | 281 kts | 256° |
| 2026-04-25 10:01 | 55.99948 | -3.56548 | 10568 ft | 296 kts | 257° |
| 2026-04-25 10:01 | 55.99413 | -3.60248 | 10745 ft | 318 kts | 257° |
| 2026-04-25 10:01 | 55.98857 | -3.64154 | 11217 ft | 328 kts | 258° |
| 2026-04-25 10:02 | 55.98289 | -3.68135 | 11853 ft | 332 kts | 257° |
| 2026-04-25 10:02 | 55.97716 | -3.72158 | 12519 ft | 336 kts | 258° |
| 2026-04-25 10:02 | 55.97134 | -3.76226 | 13167 ft | 341 kts | 258° |
| 2026-04-25 10:02 | 55.96542 | -3.80343 | 13845 ft | 344 kts | 257° |
| 2026-04-25 10:03 | 55.95949 | -3.84442 | 14473 ft | 347 kts | 258° |
| 2026-04-25 10:03 | 55.95339 | -3.88638 | 15068 ft | 350 kts | 257° |
| 2026-04-25 10:03 | 55.94725 | -3.92859 | 15684 ft | 353 kts | 257° |
| 2026-04-25 10:03 | 55.94079 | -3.97107 | 16309 ft | 356 kts | 252° |
| 2026-04-25 10:04 | 55.93002 | -4.01127 | 16858 ft | 362 kts | 238° |
| 2026-04-25 10:04 | 55.91372 | -4.04576 | 17447 ft | 367 kts | 223° |
| 2026-04-25 10:04 | 55.89318 | -4.07312 | 18027 ft | 370 kts | 215° |
| 2026-04-25 10:04 | 55.87178 | -4.09915 | 18629 ft | 372 kts | 215° |
| 2026-04-25 10:05 | 55.85757 | -4.11644 | 18984 ft | 373 kts | 215° |
| 2026-04-25 10:05 | 55.82901 | -4.15120 | 19653 ft | 377 kts | 215° |
| 2026-04-25 10:05 | 55.80721 | -4.17776 | 20149 ft | 380 kts | 215° |
| 2026-04-25 10:05 | 55.78533 | -4.20446 | 20654 ft | 383 kts | 215° |
| 2026-04-25 10:06 | 55.76246 | -4.22896 | 21124 ft | 386 kts | 205° |
| 2026-04-25 10:06 | 55.73701 | -4.24503 | 21568 ft | 390 kts | 193° |
| 2026-04-25 10:06 | 55.70997 | -4.25109 | 22013 ft | 394 kts | 181° |
| 2026-04-25 10:06 | 55.68268 | -4.24655 | 22526 ft | 395 kts | 168° |
| 2026-04-25 10:07 | 55.65641 | -4.23205 | 23013 ft | 397 kts | 157° |
| 2026-04-25 10:07 | 55.63195 | -4.21016 | 23441 ft | 400 kts | 150° |
| 2026-04-25 10:07 | 55.60761 | -4.18604 | 23887 ft | 402 kts | 151° |
| 2026-04-25 10:07 | 55.58304 | -4.16192 | 24263 ft | 404 kts | 151° |
| 2026-04-25 10:08 | 55.55834 | -4.13779 | 24650 ft | 406 kts | 151° |
| 2026-04-25 10:08 | 55.53341 | -4.11356 | 25016 ft | 409 kts | 152° |
| 2026-04-25 10:08 | 55.50834 | -4.08926 | 25403 ft | 412 kts | 152° |
| 2026-04-25 10:08 | 55.48318 | -4.06484 | 25768 ft | 414 kts | 152° |
| 2026-04-25 10:09 | 55.45786 | -4.04021 | 26153 ft | 416 kts | 152° |
| 2026-04-25 10:09 | 55.43282 | -4.01589 | 26576 ft | 417 kts | 152° |
| 2026-04-25 10:09 | 55.40733 | -3.99118 | 26987 ft | 418 kts | 152° |
| 2026-04-25 10:09 | 55.38185 | -3.96649 | 27377 ft | 419 kts | 152° |
| 2026-04-25 10:10 | 55.35615 | -3.94165 | 27741 ft | 421 kts | 152° |
| 2026-04-25 10:10 | 55.33034 | -3.91678 | 28120 ft | 423 kts | 152° |
| 2026-04-25 10:10 | 55.30442 | -3.89185 | 28476 ft | 426 kts | 152° |
| 2026-04-25 10:10 | 55.27839 | -3.86687 | 28840 ft | 428 kts | 152° |
| 2026-04-25 10:11 | 55.25217 | -3.84172 | 29133 ft | 431 kts | 152° |
| 2026-04-25 10:11 | 55.22605 | -3.81667 | 29387 ft | 435 kts | 152° |
| 2026-04-25 10:11 | 55.19920 | -3.79174 | 29707 ft | 438 kts | 154° |
| 2026-04-25 10:11 | 55.17190 | -3.76777 | 30098 ft | 438 kts | 155° |
| 2026-04-25 10:12 | 55.14438 | -3.74449 | 30435 ft | 440 kts | 155° |
| 2026-04-25 10:12 | 55.11666 | -3.72135 | 30722 ft | 441 kts | 156° |
| 2026-04-25 10:12 | 55.06113 | -3.67470 | 31274 ft | 444 kts | 155° |
| 2026-04-25 10:13 | 55.03361 | -3.65131 | 31528 ft | 445 kts | 155° |
| 2026-04-25 10:13 | 55.00572 | -3.62750 | 31782 ft | 446 kts | 155° |
| 2026-04-25 10:13 | 54.97790 | -3.60370 | 32137 ft | 445 kts | 155° |
| 2026-04-25 10:13 | 54.95013 | -3.57995 | 32499 ft | 443 kts | 155° |
| 2026-04-25 10:14 | 54.92248 | -3.55634 | 32898 ft | 441 kts | 155° |
| 2026-04-25 10:14 | 54.89498 | -3.53289 | 33270 ft | 439 kts | 155° |
| 2026-04-25 10:14 | 54.86760 | -3.50965 | 33623 ft | 437 kts | 155° |
| 2026-04-25 10:14 | 54.84027 | -3.48657 | 33966 ft | 436 kts | 156° |
| 2026-04-25 10:15 | 54.81300 | -3.46363 | 34285 ft | 435 kts | 156° |
| 2026-04-25 10:15 | 54.78577 | -3.44075 | 34563 ft | 434 kts | 156° |
| 2026-04-25 10:15 | 54.75891 | -3.41814 | 34825 ft | 434 kts | 155° |
| 2026-04-25 10:15 | 54.73171 | -3.39524 | 35081 ft | 434 kts | 155° |
| 2026-04-25 10:16 | 54.70443 | -3.37234 | 35332 ft | 434 kts | 155° |
| 2026-04-25 10:16 | 54.67729 | -3.34962 | 35572 ft | 434 kts | 156° |
| 2026-04-25 10:16 | 54.65918 | -3.33448 | 35730 ft | 435 kts | 156° |
| 2026-04-25 10:16 | 54.62275 | -3.30407 | 36063 ft | 435 kts | 156° |
| 2026-04-25 10:17 | 54.59591 | -3.28169 | 36310 ft | 435 kts | 156° |
| 2026-04-25 10:17 | 54.56865 | -3.25895 | 36554 ft | 435 kts | 155° |
| 2026-04-25 10:17 | 54.54143 | -3.23625 | 36787 ft | 435 kts | 155° |
| 2026-04-25 10:17 | 54.51421 | -3.21358 | 36999 ft | 435 kts | 155° |
| 2026-04-25 10:18 | 54.48690 | -3.19098 | 37164 ft | 436 kts | 156° |
| 2026-04-25 10:18 | 54.43230 | -3.14591 | 37208 ft | 435 kts | 156° |
| 2026-04-25 10:19 | 54.38654 | -3.10813 | 37217 ft | 435 kts | 156° |
| 2026-04-25 10:19 | 54.33232 | -3.06345 | 37214 ft | 435 kts | 156° |
| 2026-04-25 10:20 | 54.27774 | -3.01867 | 37214 ft | 435 kts | 156° |
| 2026-04-25 10:20 | 54.22304 | -2.97381 | 37217 ft | 435 kts | 156° |
| 2026-04-25 10:21 | 54.16830 | -2.92907 | 37218 ft | 436 kts | 157° |
| 2026-04-25 10:21 | 54.11281 | -2.88710 | 37222 ft | 436 kts | 159° |
| 2026-04-25 10:22 | 54.05673 | -2.84748 | 37231 ft | 436 kts | 159° |
| 2026-04-25 10:22 | 54.00099 | -2.80791 | 37234 ft | 437 kts | 159° |
| 2026-04-25 10:23 | 53.94501 | -2.76740 | 37232 ft | 437 kts | 159° |
| 2026-04-25 10:23 | 53.88901 | -2.72675 | 37233 ft | 437 kts | 159° |
| 2026-04-25 10:24 | 53.83306 | -2.68634 | 37231 ft | 437 kts | 159° |
| 2026-04-25 10:24 | 53.77733 | -2.64634 | 37235 ft | 437 kts | 159° |
| 2026-04-25 10:25 | 53.72134 | -2.60619 | 37235 ft | 437 kts | 159° |
| 2026-04-25 10:25 | 53.66532 | -2.56621 | 37223 ft | 437 kts | 159° |
| 2026-04-25 10:26 | 53.60906 | -2.52619 | 37230 ft | 438 kts | 159° |
| 2026-04-25 10:26 | 53.55284 | -2.48633 | 37232 ft | 438 kts | 159° |
| 2026-04-25 10:27 | 53.49663 | -2.44659 | 37231 ft | 438 kts | 159° |
| 2026-04-25 10:27 | 53.44043 | -2.40688 | 37232 ft | 438 kts | 159° |
| 2026-04-25 10:28 | 53.38449 | -2.36743 | 37245 ft | 438 kts | 159° |
| 2026-04-25 10:28 | 53.32819 | -2.32793 | 37240 ft | 438 kts | 160° |
| 2026-04-25 10:29 | 53.27195 | -2.28862 | 37243 ft | 438 kts | 160° |
| 2026-04-25 10:29 | 53.21563 | -2.24929 | 37236 ft | 438 kts | 160° |
| 2026-04-25 10:30 | 53.15934 | -2.21028 | 37234 ft | 438 kts | 160° |
| 2026-04-25 10:30 | 53.10300 | -2.17131 | 37238 ft | 438 kts | 160° |
| 2026-04-25 10:31 | 53.04664 | -2.13226 | 37240 ft | 439 kts | 160° |
| 2026-04-25 10:31 | 52.99022 | -2.09326 | 37241 ft | 439 kts | 160° |
| 2026-04-25 10:32 | 52.93402 | -2.05451 | 37241 ft | 439 kts | 160° |
| 2026-04-25 10:32 | 52.87750 | -2.01573 | 37239 ft | 440 kts | 160° |
| 2026-04-25 10:33 | 52.82084 | -1.97714 | 37251 ft | 439 kts | 160° |
| 2026-04-25 10:33 | 52.76432 | -1.93858 | 37256 ft | 439 kts | 160° |
| 2026-04-25 10:34 | 52.70812 | -1.90034 | 37255 ft | 439 kts | 160° |
| 2026-04-25 10:34 | 52.65155 | -1.86193 | 37260 ft | 440 kts | 160° |
| 2026-04-25 10:35 | 52.59484 | -1.82359 | 37266 ft | 440 kts | 160° |
| 2026-04-25 10:35 | 52.53813 | -1.78542 | 37270 ft | 440 kts | 160° |
| 2026-04-25 10:36 | 52.48145 | -1.74732 | 37263 ft | 440 kts | 160° |
| 2026-04-25 10:36 | 52.42507 | -1.70947 | 37266 ft | 441 kts | 160° |
| 2026-04-25 10:37 | 52.36818 | -1.67159 | 37269 ft | 441 kts | 160° |
| 2026-04-25 10:37 | 52.31207 | -1.63042 | 37266 ft | 442 kts | 156° |
| 2026-04-25 10:38 | 52.25734 | -1.58411 | 37237 ft | 443 kts | 154° |
| 2026-04-25 10:38 | 52.20274 | -1.53749 | 37240 ft | 443 kts | 155° |
| 2026-04-25 10:39 | 52.14767 | -1.49212 | 37242 ft | 443 kts | 156° |
| 2026-04-25 10:39 | 52.09275 | -1.44771 | 37241 ft | 442 kts | 156° |
| 2026-04-25 10:40 | 52.03758 | -1.40322 | 37242 ft | 442 kts | 156° |
| 2026-04-25 10:40 | 51.98279 | -1.35814 | 37269 ft | 442 kts | 152° |
| 2026-04-25 10:41 | 51.93316 | -1.29870 | 37274 ft | 444 kts | 144° |
| 2026-04-25 10:41 | 51.88422 | -1.23751 | 37274 ft | 443 kts | 145° |
| 2026-04-25 10:42 | 51.83558 | -1.17718 | 37280 ft | 443 kts | 145° |
| 2026-04-25 10:42 | 51.78669 | -1.11642 | 37253 ft | 443 kts | 145° |
| 2026-04-25 10:43 | 51.73781 | -1.05575 | 37247 ft | 442 kts | 145° |
| 2026-04-25 10:43 | 51.68899 | -0.99528 | 37246 ft | 441 kts | 145° |
| 2026-04-25 10:44 | 51.64065 | -0.93558 | 37250 ft | 440 kts | 145° |
| 2026-04-25 10:44 | 51.59189 | -0.87570 | 37245 ft | 441 kts | 145° |
| 2026-04-25 10:45 | 51.54305 | -0.81592 | 37245 ft | 441 kts | 145° |
| 2026-04-25 10:45 | 51.49411 | -0.75605 | 37253 ft | 442 kts | 145° |
| 2026-04-25 10:46 | 51.44518 | -0.69630 | 37264 ft | 442 kts | 145° |
| 2026-04-25 10:46 | 51.39618 | -0.63659 | 37263 ft | 442 kts | 145° |
| 2026-04-25 10:47 | 51.34741 | -0.57754 | 37264 ft | 441 kts | 146° |
| 2026-04-25 10:47 | 51.29826 | -0.51818 | 37258 ft | 441 kts | 145° |
| 2026-04-25 10:48 | 51.24955 | -0.45938 | 37259 ft | 441 kts | 145° |
| 2026-04-25 10:48 | 51.20055 | -0.40035 | 37262 ft | 441 kts | 146° |
| 2026-04-25 10:49 | 51.15144 | -0.34138 | 37263 ft | 441 kts | 146° |
| 2026-04-25 10:49 | 51.10226 | -0.28248 | 37263 ft | 441 kts | 146° |
| 2026-04-25 10:50 | 51.05306 | -0.22382 | 37264 ft | 441 kts | 146° |
| 2026-04-25 10:50 | 51.00414 | -0.16549 | 37263 ft | 442 kts | 146° |
| 2026-04-25 10:51 | 50.95480 | -0.10704 | 37261 ft | 442 kts | 146° |
| 2026-04-25 10:51 | 50.90526 | -0.04851 | 37074 ft | 450 kts | 146° |
| 2026-04-25 10:51 | 50.88006 | -0.01878 | 36811 ft | 454 kts | 146° |
| 2026-04-25 10:52 | 50.85503 | 0.01079 | 36530 ft | 454 kts | 146° |
| 2026-04-25 10:52 | 50.82972 | 0.04072 | 36273 ft | 454 kts | 146° |
| 2026-04-25 10:52 | 50.80440 | 0.07062 | 36016 ft | 452 kts | 146° |
| 2026-04-25 10:52 | 50.77922 | 0.10028 | 35766 ft | 450 kts | 146° |
| 2026-04-25 10:53 | 50.75414 | 0.12980 | 35514 ft | 449 kts | 146° |
| 2026-04-25 10:53 | 50.72949 | 0.15994 | 35266 ft | 448 kts | 144° |
| 2026-04-25 10:53 | 50.70528 | 0.19079 | 35019 ft | 446 kts | 143° |
| 2026-04-25 10:53 | 50.68139 | 0.22198 | 34770 ft | 445 kts | 143° |
| 2026-04-25 10:54 | 50.65762 | 0.25321 | 34525 ft | 443 kts | 143° |
| 2026-04-25 10:54 | 50.64196 | 0.27370 | 34363 ft | 442 kts | 143° |
| 2026-04-25 10:54 | 50.61021 | 0.31473 | 34014 ft | 439 kts | 144° |
| 2026-04-25 10:54 | 50.58680 | 0.34460 | 33739 ft | 438 kts | 144° |
| 2026-04-25 10:55 | 50.56315 | 0.37460 | 33468 ft | 436 kts | 144° |
| 2026-04-25 10:55 | 50.53950 | 0.40448 | 33204 ft | 434 kts | 144° |
| 2026-04-25 10:55 | 50.51600 | 0.43414 | 32931 ft | 432 kts | 144° |
| 2026-04-25 10:55 | 50.49256 | 0.46369 | 32654 ft | 431 kts | 144° |
| 2026-04-25 10:56 | 50.46932 | 0.49308 | 32363 ft | 427 kts | 144° |
| 2026-04-25 10:56 | 50.44625 | 0.52231 | 31887 ft | 423 kts | 144° |
| 2026-04-25 10:56 | 50.42378 | 0.55074 | 31425 ft | 419 kts | 145° |
| 2026-04-25 10:56 | 50.40121 | 0.57923 | 30941 ft | 414 kts | 145° |
| 2026-04-25 10:57 | 50.37885 | 0.60736 | 30490 ft | 411 kts | 145° |
| 2026-04-25 10:57 | 50.35661 | 0.63528 | 29999 ft | 407 kts | 145° |
| 2026-04-25 10:57 | 50.33465 | 0.66283 | 29550 ft | 402 kts | 145° |
| 2026-04-25 10:57 | 50.31295 | 0.69004 | 29113 ft | 396 kts | 145° |
| 2026-04-25 10:58 | 50.29154 | 0.71688 | 28681 ft | 391 kts | 145° |
| 2026-04-25 10:58 | 50.27036 | 0.74340 | 28268 ft | 387 kts | 145° |
| 2026-04-25 10:58 | 50.24973 | 0.76922 | 27870 ft | 382 kts | 145° |
| 2026-04-25 10:58 | 50.22907 | 0.79501 | 27470 ft | 377 kts | 145° |
| 2026-04-25 10:59 | 50.20867 | 0.82041 | 27087 ft | 372 kts | 144° |
| 2026-04-25 10:59 | 50.18850 | 0.84549 | 26716 ft | 369 kts | 144° |
| 2026-04-25 10:59 | 50.16845 | 0.87041 | 26353 ft | 367 kts | 144° |
| 2026-04-25 10:59 | 50.14849 | 0.89520 | 25971 ft | 366 kts | 144° |
| 2026-04-25 11:00 | 50.12862 | 0.91986 | 25590 ft | 363 kts | 144° |
| 2026-04-25 11:00 | 50.10905 | 0.94416 | 25237 ft | 364 kts | 144° |
| 2026-04-25 11:00 | 50.08927 | 0.96871 | 24845 ft | 363 kts | 144° |
| 2026-04-25 11:00 | 50.06956 | 0.99311 | 24458 ft | 361 kts | 145° |
| 2026-04-25 11:01 | 50.04874 | 1.01447 | 24081 ft | 357 kts | 155° |
| 2026-04-25 11:01 | 50.02584 | 1.03182 | 23691 ft | 373 kts | 157° |
| 2026-04-25 11:01 | 50.00230 | 1.04938 | 23280 ft | 377 kts | 157° |
| 2026-04-25 11:01 | 49.97862 | 1.06716 | 22885 ft | 376 kts | 156° |
| 2026-04-25 11:02 | 49.95515 | 1.08483 | 22485 ft | 374 kts | 157° |
| 2026-04-25 11:02 | 49.93183 | 1.10247 | 22100 ft | 370 kts | 157° |
| 2026-04-25 11:02 | 49.90871 | 1.12000 | 21718 ft | 368 kts | 157° |
| 2026-04-25 11:02 | 49.88570 | 1.13739 | 21342 ft | 366 kts | 157° |
| 2026-04-25 11:03 | 49.86289 | 1.15453 | 20962 ft | 363 kts | 157° |
| 2026-04-25 11:03 | 49.84042 | 1.17136 | 20594 ft | 361 kts | 157° |
| 2026-04-25 11:03 | 49.81787 | 1.18819 | 20224 ft | 359 kts | 157° |
| 2026-04-25 11:03 | 49.79537 | 1.20493 | 19850 ft | 357 kts | 157° |
| 2026-04-25 11:04 | 49.77303 | 1.22151 | 19474 ft | 355 kts | 157° |
| 2026-04-25 11:04 | 49.75085 | 1.23801 | 19109 ft | 353 kts | 157° |
| 2026-04-25 11:04 | 49.73621 | 1.24891 | 18866 ft | 352 kts | 156° |
| 2026-04-25 11:04 | 49.71418 | 1.26531 | 18503 ft | 350 kts | 156° |
| 2026-04-25 11:05 | 49.69225 | 1.28162 | 18101 ft | 348 kts | 156° |
| 2026-04-25 11:05 | 49.67045 | 1.29781 | 17747 ft | 347 kts | 156° |
| 2026-04-25 11:05 | 49.64875 | 1.31395 | 17391 ft | 345 kts | 156° |
| 2026-04-25 11:05 | 49.62026 | 1.33510 | 16927 ft | 342 kts | 156° |
| 2026-04-25 11:06 | 49.60574 | 1.34586 | 16685 ft | 341 kts | 156° |
| 2026-04-25 11:06 | 49.58439 | 1.36166 | 16331 ft | 340 kts | 156° |
| 2026-04-25 11:06 | 49.56334 | 1.37720 | 15986 ft | 339 kts | 156° |
| 2026-04-25 11:06 | 49.54216 | 1.39282 | 15638 ft | 337 kts | 156° |
| 2026-04-25 11:07 | 49.52107 | 1.40836 | 15291 ft | 335 kts | 156° |
| 2026-04-25 11:07 | 49.50014 | 1.42375 | 14945 ft | 332 kts | 156° |
| 2026-04-25 11:07 | 49.47935 | 1.43904 | 14605 ft | 330 kts | 155° |
| 2026-04-25 11:07 | 49.45864 | 1.45429 | 14264 ft | 328 kts | 155° |
| 2026-04-25 11:08 | 49.43812 | 1.46940 | 13904 ft | 326 kts | 155° |
| 2026-04-25 11:08 | 49.41770 | 1.48440 | 13561 ft | 325 kts | 155° |
| 2026-04-25 11:08 | 49.39734 | 1.49931 | 13226 ft | 323 kts | 156° |
| 2026-04-25 11:08 | 49.37704 | 1.51413 | 12893 ft | 322 kts | 155° |
| 2026-04-25 11:09 | 49.35685 | 1.52884 | 12567 ft | 321 kts | 155° |
| 2026-04-25 11:09 | 49.33758 | 1.54596 | 12232 ft | 320 kts | 144° |
| 2026-04-25 11:09 | 49.32121 | 1.56904 | 11898 ft | 320 kts | 131° |
| 2026-04-25 11:09 | 49.30866 | 1.59654 | 11569 ft | 319 kts | 118° |
| 2026-04-25 11:10 | 49.30009 | 1.62765 | 11221 ft | 317 kts | 106° |
| 2026-04-25 11:10 | 49.29683 | 1.64983 | 10989 ft | 315 kts | 97° |
| 2026-04-25 11:10 | 49.29507 | 1.69415 | 10539 ft | 313 kts | 86° |
| 2026-04-25 11:10 | 49.30142 | 1.72526 | 10228 ft | 306 kts | 54° |
| 2026-04-25 11:11 | 49.31676 | 1.74669 | 10011 ft | 294 kts | 30° |
| 2026-04-25 11:11 | 49.33330 | 1.76463 | 9832 ft | 292 kts | 46° |
| 2026-04-25 11:11 | 49.34256 | 1.79201 | 9704 ft | 294 kts | 79° |
| 2026-04-25 11:11 | 49.34093 | 1.82283 | 9576 ft | 294 kts | 112° |
| 2026-04-25 11:12 | 49.32885 | 1.84764 | 9443 ft | 293 kts | 145° |
| 2026-04-25 11:12 | 49.31017 | 1.85865 | 9312 ft | 289 kts | 178° |
| 2026-04-25 11:12 | 49.29040 | 1.85590 | 9188 ft | 288 kts | 195° |
| 2026-04-25 11:12 | 49.27117 | 1.84724 | 9061 ft | 288 kts | 199° |
| 2026-04-25 11:13 | 49.25204 | 1.83801 | 8939 ft | 288 kts | 199° |
| 2026-04-25 11:13 | 49.23295 | 1.82877 | 8809 ft | 288 kts | 199° |
| 2026-04-25 11:13 | 49.21346 | 1.82189 | 8679 ft | 288 kts | 186° |
| 2026-04-25 11:13 | 49.19365 | 1.82550 | 8456 ft | 291 kts | 160° |
| 2026-04-25 11:14 | 49.17624 | 1.84095 | 8082 ft | 289 kts | 144° |
| 2026-04-25 11:14 | 49.16036 | 1.85962 | 7736 ft | 287 kts | 142° |
| 2026-04-25 11:14 | 49.14470 | 1.87843 | 7446 ft | 285 kts | 142° |
| 2026-04-25 11:14 | 49.12921 | 1.89700 | 7163 ft | 282 kts | 142° |
| 2026-04-25 11:15 | 49.11408 | 1.91512 | 6876 ft | 278 kts | 142° |
| 2026-04-25 11:15 | 49.09894 | 1.93321 | 6585 ft | 274 kts | 142° |
| 2026-04-25 11:15 | 49.08401 | 1.95097 | 6275 ft | 270 kts | 142° |
| 2026-04-25 11:15 | 49.06929 | 1.96841 | 5970 ft | 266 kts | 142° |
| 2026-04-25 11:16 | 49.04074 | 2.00281 | 5413 ft | 257 kts | 134° |
| 2026-04-25 11:16 | 49.03005 | 2.02430 | 5141 ft | 252 kts | 123° |
| 2026-04-25 11:16 | 49.02074 | 2.04623 | 5077 ft | 238 kts | 122° |
| 2026-04-25 11:17 | 49.01244 | 2.06682 | 5074 ft | 227 kts | 117° |
| 2026-04-25 11:17 | 49.00619 | 2.08891 | 5072 ft | 226 kts | 109° |
| 2026-04-25 11:17 | 49.00216 | 2.11158 | 5087 ft | 214 kts | 92° |
| 2026-04-25 11:17 | 49.00271 | 2.13387 | 5083 ft | 208 kts | 84° |
| 2026-04-25 11:18 | 49.00402 | 2.15510 | 5048 ft | 197 kts | 84° |
| 2026-04-25 11:18 | 49.00524 | 2.17548 | 4875 ft | 194 kts | 84° |
| 2026-04-25 11:18 | 49.00642 | 2.19586 | 4640 ft | 192 kts | 84° |
| 2026-04-25 11:18 | 49.00756 | 2.21589 | 4372 ft | 187 kts | 84° |
| 2026-04-25 11:19 | 49.00866 | 2.23527 | 4129 ft | 181 kts | 85° |
| 2026-04-25 11:19 | 49.00973 | 2.25412 | 3888 ft | 176 kts | 85° |
| 2026-04-25 11:19 | 49.01076 | 2.27244 | 3658 ft | 171 kts | 85° |
| 2026-04-25 11:19 | 49.01175 | 2.29002 | 3439 ft | 166 kts | 85° |
| 2026-04-25 11:20 | 49.01273 | 2.30735 | 3228 ft | 158 kts | 85° |
| 2026-04-25 11:20 | 49.01363 | 2.32351 | 3015 ft | 153 kts | 85° |
| 2026-04-25 11:20 | 49.01452 | 2.33943 | 2813 ft | 148 kts | 85° |
| 2026-04-25 11:20 | 49.01537 | 2.35468 | 2618 ft | 142 kts | 84° |
| 2026-04-25 11:21 | 49.01619 | 2.36954 | 2424 ft | 139 kts | 84° |
| 2026-04-25 11:21 | 49.01701 | 2.38426 | 2242 ft | 139 kts | 84° |
| 2026-04-25 11:21 | 49.01782 | 2.39897 | 2063 ft | 139 kts | 84° |
| 2026-04-25 11:21 | 49.01862 | 2.41336 | 1877 ft | 138 kts | 83° |
| 2026-04-25 11:22 | 49.01942 | 2.42788 | 1689 ft | 137 kts | 83° |
| 2026-04-25 11:22 | 49.01996 | 2.43768 | 1564 ft | 136 kts | 83° |
| 2026-04-25 11:22 | 49.02100 | 2.45669 | 1265 ft | 135 kts | 84° |
| 2026-04-25 11:22 | 49.02172 | 2.47101 | 1080 ft | 136 kts | 84° |
| 2026-04-25 11:23 | 49.02249 | 2.48541 | 927 ft | 135 kts | 84° |
| 2026-04-25 11:23 | 49.02333 | 2.49956 | 742 ft | 134 kts | 85° |
| 2026-04-25 11:23 | 49.02397 | 2.51355 | 546 ft | 132 kts | 85° |
| 2026-04-25 11:23 | 49.02480 | 2.52728 | 371 ft | 130 kts | 85° |
| 2026-04-25 11:24 | 49.02551 | 2.53945 | 356 ft | 98 kts | 85° |
| 2026-04-25 11:24 | 49.02595 | 2.54737 | 356 ft | 60 kts | 85° |
| 2026-04-25 11:24 | 49.02599 | 2.55209 | 360 ft | 26 kts | 120° |
| 2026-04-25 11:24 | 49.02515 | 2.55458 | 361 ft | 27 kts | 115° |
| 2026-04-25 11:25 | 49.02485 | 2.55566 | 358 ft | 0 kts | 110° |
| 2026-04-25 11:25 | 49.02484 | 2.55568 | 357 ft | 1 kts | 110° |
| 2026-04-25 11:25 | 49.02476 | 2.55586 | 362 ft | 3 kts | 131° |
| 2026-04-25 11:26 | 49.02451 | 2.55604 | 361 ft | 5 kts | 166° |
| 2026-04-25 11:26 | 49.02406 | 2.55612 | 355 ft | 8 kts | 179° |
| 2026-04-25 11:26 | 49.02346 | 2.55619 | 355 ft | 10 kts | 175° |
| 2026-04-25 11:26 | 49.02270 | 2.55634 | 357 ft | 12 kts | 171° |
| 2026-04-25 11:27 | 49.02178 | 2.55644 | 355 ft | 14 kts | 179° |
| 2026-04-25 11:27 | 49.02083 | 2.55600 | 362 ft | 16 kts | 229° |
| 2026-04-25 11:27 | 49.02060 | 2.55436 | 356 ft | 17 kts | 266° |
| 2026-04-25 11:27 | 49.02054 | 2.55310 | 355 ft | 19 kts | 266° |
| 2026-04-25 11:28 | 49.02037 | 2.55029 | 355 ft | 21 kts | 262° |
| 2026-04-25 11:28 | 49.01986 | 2.54852 | 358 ft | 15 kts | 191° |
| 2026-04-25 11:28 | 49.01904 | 2.54845 | 355 ft | 12 kts | 178° |
| 2026-04-25 11:28 | 49.01817 | 2.54853 | 363 ft | 14 kts | 176° |
| 2026-04-25 11:29 | 49.01711 | 2.54861 | 355 ft | 16 kts | 178° |
| 2026-04-25 11:29 | 49.01592 | 2.54864 | 359 ft | 18 kts | 179° |
| 2026-04-25 11:29 | 49.01469 | 2.54881 | 361 ft | 16 kts | 147° |
| 2026-04-25 11:29 | 49.01370 | 2.54928 | 359 ft | 16 kts | 166° |
| 2026-04-25 11:30 | 49.01255 | 2.54975 | 356 ft | 18 kts | 163° |
| 2026-04-25 11:30 | 49.01128 | 2.55036 | 362 ft | 20 kts | 163° |
| 2026-04-25 11:30 | 49.00991 | 2.55096 | 363 ft | 19 kts | 165° |
| 2026-04-25 11:30 | 49.00858 | 2.55151 | 358 ft | 21 kts | 165° |
| 2026-04-25 11:31 | 49.00714 | 2.55212 | 361 ft | 23 kts | 164° |
| 2026-04-25 11:31 | 49.00555 | 2.55283 | 359 ft | 24 kts | 163° |
| 2026-04-25 11:31 | 49.00386 | 2.55358 | 357 ft | 26 kts | 165° |
| 2026-04-25 11:31 | 49.00213 | 2.55433 | 360 ft | 24 kts | 165° |
| 2026-04-25 11:32 | 49.00049 | 2.55489 | 357 ft | 25 kts | 168° |
| 2026-04-25 11:32 | 48.99912 | 2.55564 | 360 ft | 16 kts | 135° |
| 2026-04-25 11:32 | 48.99926 | 2.55672 | 357 ft | 12 kts | 71° |
| 2026-04-25 11:32 | 48.99913 | 2.55804 | 361 ft | 14 kts | 105° |
| 2026-04-25 11:33 | 48.99892 | 2.55959 | 354 ft | 16 kts | 96° |
| 2026-04-25 11:33 | 48.99896 | 2.56137 | 354 ft | 18 kts | 82° |
| 2026-04-25 11:33 | 48.99905 | 2.56335 | 354 ft | 20 kts | 86° |
| 2026-04-25 11:33 | 48.99923 | 2.56532 | 361 ft | 17 kts | 60° |
| 2026-04-25 11:34 | 49.00012 | 2.56571 | 360 ft | 12 kts | 353° |
| 2026-04-25 11:34 | 49.00100 | 2.56596 | 361 ft | 14 kts | 44° |
| 2026-04-25 11:34 | 49.00120 | 2.56745 | 358 ft | 16 kts | 84° |
| 2026-04-25 11:34 | 49.00127 | 2.56883 | 355 ft | 3 kts | 86° |
| 2026-04-25 11:35 | 49.00138 | 2.56917 | 360 ft | 5 kts | 41° |
| 2026-04-25 11:35 | 49.00171 | 2.56914 | 359 ft | 6 kts | 339° |
| 2026-04-25 11:35 | 49.00192 | 2.56903 | 359 ft | 0 kts | 341° |